KSAC/SAC METAR and TAF weather

Enter ICAO airport designator
Station Type Date Time Source
KSAC METAR 2020/08/10 18:53 UTC NOAA

KSAC 101853Z VRB03KT 10SM CLR 29/14 A2986 RMK AO2 SLP111 T02890139


Station Type Date Time Source
KSAC Decoded METAR 2020/08/10 18:53 UTC NOAA

SACRAMENTO EXECUTIVE AIRPORT , CA, United States (KSAC) 38-30N 121-30W 11M
Aug 10, 2020 - 02:53 PM EDT / 2020.08.10 1853 UTC
Wind: Variable at 3 MPH (3 KT):0
Visibility: 10 mile(s):0
Sky conditions: clear
Temperature: 84.0 F (28.9 C)
Dew Point: 57.0 F (13.9 C)
Relative Humidity: 39%
Pressure (altimeter): 29.86 in. Hg (1011 hPa)
ob: KSAC 101853Z VRB03KT 10SM CLR 29/14 A2986 RMK AO2 SLP111 T02890139
cycle: 19

Station Type Date Time Source
KSAC TAF 2020/08/10 18:40 UTC NOAA

TAF KSAC 101737Z 1018/1118 20006KT P6SM FEW250
FM102200 20010G16KT P6SM FEW250

Example: see airport list